sensor_id;sensor_type;location;lat;lon;timestamp;temperature;humidity
17489;DHT22;8861;52.644;4.734;2023-06-01T00:01:58;13.40;99.90
17489;DHT22;8861;52.644;4.734;2023-06-01T00:04:25;13.40;99.90
17489;DHT22;8861;52.644;4.734;2023-06-01T00:06:52;13.30;99.90
17489;DHT22;8861;52.644;4.734;2023-06-01T00:09:19;13.30;99.90
17489;DHT22;8861;52.644;4.734;2023-06-01T00:11:48;13.30;99.90
17489;DHT22;8861;52.644;4.734;2023-06-01T00:14:15;13.30;99.90
17489;DHT22;8861;52.644;4.734;2023-06-01T00:16:41;13.30;99.90
17489;DHT22;8861;52.644;4.734;2023-06-01T00:19:10;13.20;99.90
17489;DHT22;8861;52.644;4.734;2023-06-01T00:21:37;13.20;99.90
17489;DHT22;8861;52.644;4.734;2023-06-01T00:24:05;13.20;99.90
17489;DHT22;8861;52.644;4.734;2023-06-01T00:26:32;13.20;99.90
17489;DHT22;8861;52.644;4.734;2023-06-01T00:29:00;13.20;99.90
17489;DHT22;8861;52.644;4.734;2023-06-01T00:31:27;13.20;99.90
17489;DHT22;8861;52.644;4.734;2023-06-01T00:33:54;13.20;99.90
17489;DHT22;8861;52.644;4.734;2023-06-01T00:36:21;13.30;99.90
17489;DHT22;8861;52.644;4.734;2023-06-01T00:38:48;13.20;99.90
17489;DHT22;8861;52.644;4.734;2023-06-01T00:41:15;13.20;99.90
17489;DHT22;8861;52.644;4.734;2023-06-01T00:43:42;13.20;99.90
17489;DHT22;8861;52.644;4.734;2023-06-01T00:46:10;13.20;99.90
17489;DHT22;8861;52.644;4.734;2023-06-01T00:48:39;13.10;99.90
17489;DHT22;8861;52.644;4.734;2023-06-01T00:51:06;13.10;99.90
17489;DHT22;8861;52.644;4.734;2023-06-01T00:53:34;13.10;99.90
17489;DHT22;8861;52.644;4.734;2023-06-01T00:56:01;13.10;99.90
17489;DHT22;8861;52.644;4.734;2023-06-01T00:58:28;13.10;99.90
17489;DHT22;8861;52.644;4.734;2023-06-01T01:00:56;13.10;99.90
17489;DHT22;8861;52.644;4.734;2023-06-01T01:03:24;13.10;99.90
17489;DHT22;8861;52.644;4.734;2023-06-01T01:06:01;13.10;99.90
17489;DHT22;8861;52.644;4.734;2023-06-01T01:08:44;13.20;99.90
17489;DHT22;8861;52.644;4.734;2023-06-01T01:11:19;13.20;99.90
17489;DHT22;8861;52.644;4.734;2023-06-01T01:13:50;13.10;99.90
17489;DHT22;8861;52.644;4.734;2023-06-01T01:16:26;13.10;99.90
17489;DHT22;8861;52.644;4.734;2023-06-01T01:19:00;13.10;99.90
17489;DHT22;8861;52.644;4.734;2023-06-01T01:21:31;13.10;99.90
17489;DHT22;8861;52.644;4.734;2023-06-01T01:24:23;13.10;99.90
17489;DHT22;8861;52.644;4.734;2023-06-01T01:27:11;13.10;99.90
17489;DHT22;8861;52.644;4.734;2023-06-01T01:29:42;13.10;99.90
17489;DHT22;8861;52.644;4.734;2023-06-01T01:32:10;13.10;99.90
17489;DHT22;8861;52.644;4.734;2023-06-01T01:34:40;13.10;99.90
17489;DHT22;8861;52.644;4.734;2023-06-01T01:37:10;13.00;99.90
17489;DHT22;8861;52.644;4.734;2023-06-01T01:39:37;13.00;99.90
17489;DHT22;8861;52.644;4.734;2023-06-01T01:42:04;12.90;99.90
17489;DHT22;8861;52.644;4.734;2023-06-01T01:44:32;12.90;99.90
17489;DHT22;8861;52.644;4.734;2023-06-01T01:47:06;12.80;99.90
17489;DHT22;8861;52.644;4.734;2023-06-01T01:49:41;12.80;99.90
17489;DHT22;8861;52.644;4.734;2023-06-01T01:52:12;12.80;99.90
17489;DHT22;8861;52.644;4.734;2023-06-01T01:54:43;12.80;99.90
17489;DHT22;8861;52.644;4.734;2023-06-01T01:57:12;12.80;99.90
17489;DHT22;8861;52.644;4.734;2023-06-01T01:59:40;12.80;99.90
17489;DHT22;8861;52.644;4.734;2023-06-01T02:02:10;12.80;99.90
17489;DHT22;8861;52.644;4.734;2023-06-01T02:04:39;12.80;99.90
17489;DHT22;8861;52.644;4.734;2023-06-01T02:07:06;12.80;99.90
17489;DHT22;8861;52.644;4.734;2023-06-01T02:09:33;12.80;99.90
17489;DHT22;8861;52.644;4.734;2023-06-01T02:12:00;12.80;99.90
17489;DHT22;8861;52.644;4.734;2023-06-01T02:14:27;12.70;99.90
17489;DHT22;8861;52.644;4.734;2023-06-01T02:16:55;12.70;99.90
17489;DHT22;8861;52.644;4.734;2023-06-01T02:19:23;12.70;99.90
17489;DHT22;8861;52.644;4.734;2023-06-01T02:21:50;12.70;99.90
17489;DHT22;8861;52.644;4.734;2023-06-01T02:24:17;12.60;99.90
17489;DHT22;8861;52.644;4.734;2023-06-01T02:26:45;12.60;99.90
17489;DHT22;8861;52.644;4.734;2023-06-01T02:29:14;12.60;99.90
17489;DHT22;8861;52.644;4.734;2023-06-01T02:31:41;12.60;99.90
17489;DHT22;8861;52.644;4.734;2023-06-01T02:34:08;12.50;99.90
17489;DHT22;8861;52.644;4.734;2023-06-01T02:36:36;12.50;99.90
17489;DHT22;8861;52.644;4.734;2023-06-01T02:39:03;12.60;99.90
17489;DHT22;8861;52.644;4.734;2023-06-01T02:41:30;12.60;99.90
17489;DHT22;8861;52.644;4.734;2023-06-01T02:43:57;12.50;99.90
17489;DHT22;8861;52.644;4.734;2023-06-01T02:46:24;12.60;99.90
17489;DHT22;8861;52.644;4.734;2023-06-01T02:48:51;12.60;99.90
17489;DHT22;8861;52.644;4.734;2023-06-01T02:51:19;12.60;99.90
17489;DHT22;8861;52.644;4.734;2023-06-01T02:53:47;12.60;99.90
17489;DHT22;8861;52.644;4.734;2023-06-01T02:56:14;12.60;99.90
17489;DHT22;8861;52.644;4.734;2023-06-01T02:58:41;12.60;99.90
17489;DHT22;8861;52.644;4.734;2023-06-01T03:01:09;12.50;99.90
17489;DHT22;8861;52.644;4.734;2023-06-01T03:03:37;12.50;99.90
17489;DHT22;8861;52.644;4.734;2023-06-01T03:06:04;12.50;99.90
17489;DHT22;8861;52.644;4.734;2023-06-01T03:08:32;12.50;99.90
17489;DHT22;8861;52.644;4.734;2023-06-01T03:11:01;12.50;99.90
17489;DHT22;8861;52.644;4.734;2023-06-01T03:13:28;12.40;99.90
17489;DHT22;8861;52.644;4.734;2023-06-01T03:15:55;12.40;99.90
17489;DHT22;8861;52.644;4.734;2023-06-01T03:18:22;12.50;99.90
17489;DHT22;8861;52.644;4.734;2023-06-01T03:20:49;12.50;99.90
17489;DHT22;8861;52.644;4.734;2023-06-01T03:23:16;12.50;99.90
17489;DHT22;8861;52.644;4.734;2023-06-01T03:25:43;12.50;99.90
17489;DHT22;8861;52.644;4.734;2023-06-01T03:28:12;12.50;99.90
17489;DHT22;8861;52.644;4.734;2023-06-01T03:30:39;12.50;99.90
17489;DHT22;8861;52.644;4.734;2023-06-01T03:33:07;12.40;99.90
17489;DHT22;8861;52.644;4.734;2023-06-01T03:35:35;12.40;99.90
17489;DHT22;8861;52.644;4.734;2023-06-01T03:38:03;12.50;99.90
17489;DHT22;8861;52.644;4.734;2023-06-01T03:40:30;12.50;99.90
17489;DHT22;8861;52.644;4.734;2023-06-01T03:42:57;12.50;99.90
17489;DHT22;8861;52.644;4.734;2023-06-01T03:45:25;12.50;99.90
17489;DHT22;8861;52.644;4.734;2023-06-01T03:47:52;12.60;99.90
17489;DHT22;8861;52.644;4.734;2023-06-01T03:50:19;12.60;99.90
17489;DHT22;8861;52.644;4.734;2023-06-01T03:52:46;12.70;99.90
17489;DHT22;8861;52.644;4.734;2023-06-01T03:55:13;12.60;99.90
17489;DHT22;8861;52.644;4.734;2023-06-01T03:57:41;12.70;99.90
17489;DHT22;8861;52.644;4.734;2023-06-01T04:00:08;12.70;99.90
17489;DHT22;8861;52.644;4.734;2023-06-01T04:02:48;12.70;99.90
17489;DHT22;8861;52.644;4.734;2023-06-01T04:05:18;12.70;99.90
17489;DHT22;8861;52.644;4.734;2023-06-01T04:07:46;12.70;99.90
17489;DHT22;8861;52.644;4.734;2023-06-01T04:10:13;12.70;99.90
17489;DHT22;8861;52.644;4.734;2023-06-01T04:12:42;12.70;99.90
17489;DHT22;8861;52.644;4.734;2023-06-01T04:15:10;12.70;99.90
17489;DHT22;8861;52.644;4.734;2023-06-01T04:17:37;12.70;99.90
17489;DHT22;8861;52.644;4.734;2023-06-01T04:20:09;12.70;99.90
17489;DHT22;8861;52.644;4.734;2023-06-01T04:22:37;12.70;99.90
17489;DHT22;8861;52.644;4.734;2023-06-01T04:25:06;12.70;99.90
17489;DHT22;8861;52.644;4.734;2023-06-01T04:27:33;12.70;99.90
17489;DHT22;8861;52.644;4.734;2023-06-01T04:30:03;12.80;99.90
17489;DHT22;8861;52.644;4.734;2023-06-01T04:32:33;12.80;99.90
17489;DHT22;8861;52.644;4.734;2023-06-01T04:35:01;12.80;99.90
17489;DHT22;8861;52.644;4.734;2023-06-01T04:37:32;12.90;99.90
17489;DHT22;8861;52.644;4.734;2023-06-01T04:40:00;12.80;99.90
17489;DHT22;8861;52.644;4.734;2023-06-01T04:42:32;12.80;99.90
17489;DHT22;8861;52.644;4.734;2023-06-01T04:44:59;12.80;99.90
17489;DHT22;8861;52.644;4.734;2023-06-01T04:47:27;12.90;99.90
17489;DHT22;8861;52.644;4.734;2023-06-01T04:49:54;12.90;99.90
17489;DHT22;8861;52.644;4.734;2023-06-01T04:52:21;13.00;99.90
17489;DHT22;8861;52.644;4.734;2023-06-01T04:54:50;12.90;99.90
17489;DHT22;8861;52.644;4.734;2023-06-01T04:57:17;13.00;99.90
17489;DHT22;8861;52.644;4.734;2023-06-01T04:59:44;13.00;99.90
17489;DHT22;8861;52.644;4.734;2023-06-01T05:02:11;13.00;99.90
17489;DHT22;8861;52.644;4.734;2023-06-01T05:04:38;13.00;99.90
17489;DHT22;8861;52.644;4.734;2023-06-01T05:07:06;13.00;99.90
17489;DHT22;8861;52.644;4.734;2023-06-01T05:09:33;13.00;99.90
17489;DHT22;8861;52.644;4.734;2023-06-01T05:12:01;13.10;99.90
17489;DHT22;8861;52.644;4.734;2023-06-01T05:14:28;13.10;99.90
17489;DHT22;8861;52.644;4.734;2023-06-01T05:16:55;13.10;99.90
17489;DHT22;8861;52.644;4.734;2023-06-01T05:19:22;13.10;99.90
17489;DHT22;8861;52.644;4.734;2023-06-01T05:21:49;13.10;99.90
17489;DHT22;8861;52.644;4.734;2023-06-01T05:24:16;13.20;99.90
17489;DHT22;8861;52.644;4.734;2023-06-01T05:26:43;13.30;99.90
17489;DHT22;8861;52.644;4.734;2023-06-01T05:29:12;13.30;99.90
17489;DHT22;8861;52.644;4.734;2023-06-01T05:31:39;13.30;99.90
17489;DHT22;8861;52.644;4.734;2023-06-01T05:34:06;13.40;99.90
17489;DHT22;8861;52.644;4.734;2023-06-01T05:36:33;13.40;99.90
17489;DHT22;8861;52.644;4.734;2023-06-01T05:39:01;13.50;99.90
17489;DHT22;8861;52.644;4.734;2023-06-01T05:41:28;13.60;99.90
17489;DHT22;8861;52.644;4.734;2023-06-01T05:43:55;13.70;99.90
17489;DHT22;8861;52.644;4.734;2023-06-01T05:46:23;13.70;99.90
17489;DHT22;8861;52.644;4.734;2023-06-01T05:48:51;13.80;99.90
17489;DHT22;8861;52.644;4.734;2023-06-01T05:51:18;13.80;99.90
17489;DHT22;8861;52.644;4.734;2023-06-01T05:53:45;13.90;99.90
17489;DHT22;8861;52.644;4.734;2023-06-01T05:56:12;13.80;99.90
17489;DHT22;8861;52.644;4.734;2023-06-01T05:58:39;13.90;99.90
17489;DHT22;8861;52.644;4.734;2023-06-01T06:01:06;13.80;99.90
17489;DHT22;8861;52.644;4.734;2023-06-01T06:03:34;13.80;99.90
17489;DHT22;8861;52.644;4.734;2023-06-01T06:06:01;13.80;99.90
17489;DHT22;8861;52.644;4.734;2023-06-01T06:08:29;13.80;99.90
17489;DHT22;8861;52.644;4.734;2023-06-01T06:10:56;13.90;99.90
17489;DHT22;8861;52.644;4.734;2023-06-01T06:13:23;14.00;99.90
17489;DHT22;8861;52.644;4.734;2023-06-01T06:15:50;14.10;99.90
17489;DHT22;8861;52.644;4.734;2023-06-01T06:18:17;14.10;99.90
17489;DHT22;8861;52.644;4.734;2023-06-01T06:20:47;14.10;99.90
17489;DHT22;8861;52.644;4.734;2023-06-01T06:23:13;14.10;99.90
17489;DHT22;8861;52.644;4.734;2023-06-01T06:25:41;14.10;99.90
17489;DHT22;8861;52.644;4.734;2023-06-01T06:28:08;14.20;99.90
17489;DHT22;8861;52.644;4.734;2023-06-01T06:30:35;14.20;99.90
17489;DHT22;8861;52.644;4.734;2023-06-01T06:33:02;14.20;99.90
17489;DHT22;8861;52.644;4.734;2023-06-01T06:35:29;14.30;99.90
17489;DHT22;8861;52.644;4.734;2023-06-01T06:37:58;14.40;99.90
17489;DHT22;8861;52.644;4.734;2023-06-01T06:40:25;14.30;99.90
17489;DHT22;8861;52.644;4.734;2023-06-01T06:42:52;14.30;99.90
17489;DHT22;8861;52.644;4.734;2023-06-01T06:45:19;14.50;99.90
17489;DHT22;8861;52.644;4.734;2023-06-01T06:47:48;14.50;99.90
17489;DHT22;8861;52.644;4.734;2023-06-01T06:50:15;14.50;99.90
17489;DHT22;8861;52.644;4.734;2023-06-01T06:52:42;14.50;99.90
17489;DHT22;8861;52.644;4.734;2023-06-01T06:55:11;14.50;99.90
17489;DHT22;8861;52.644;4.734;2023-06-01T06:57:38;14.60;99.90
17489;DHT22;8861;52.644;4.734;2023-06-01T07:00:07;14.60;99.90
17489;DHT22;8861;52.644;4.734;2023-06-01T07:02:40;14.70;99.90
17489;DHT22;8861;52.644;4.734;2023-06-01T07:05:07;14.70;99.90
17489;DHT22;8861;52.644;4.734;2023-06-01T07:07:36;14.80;99.90
17489;DHT22;8861;52.644;4.734;2023-06-01T07:10:04;14.90;99.90
17489;DHT22;8861;52.644;4.734;2023-06-01T07:12:33;15.00;99.90
17489;DHT22;8861;52.644;4.734;2023-06-01T07:15:01;14.90;99.90
17489;DHT22;8861;52.644;4.734;2023-06-01T07:17:28;14.90;99.90
17489;DHT22;8861;52.644;4.734;2023-06-01T07:19:56;15.00;99.90
17489;DHT22;8861;52.644;4.734;2023-06-01T07:22:23;15.00;99.90
17489;DHT22;8861;52.644;4.734;2023-06-01T07:24:50;15.10;99.90
17489;DHT22;8861;52.644;4.734;2023-06-01T07:27:17;15.20;99.90
17489;DHT22;8861;52.644;4.734;2023-06-01T07:29:47;15.20;99.90
17489;DHT22;8861;52.644;4.734;2023-06-01T07:32:20;15.20;99.90
17489;DHT22;8861;52.644;4.734;2023-06-01T07:34:47;15.20;99.90
17489;DHT22;8861;52.644;4.734;2023-06-01T07:37:14;15.30;99.90
17489;DHT22;8861;52.644;4.734;2023-06-01T07:39:41;15.40;99.90
17489;DHT22;8861;52.644;4.734;2023-06-01T07:42:08;15.50;99.90
17489;DHT22;8861;52.644;4.734;2023-06-01T07:44:35;15.40;99.90
17489;DHT22;8861;52.644;4.734;2023-06-01T07:47:04;15.50;99.90
17489;DHT22;8861;52.644;4.734;2023-06-01T07:49:31;15.50;99.90
17489;DHT22;8861;52.644;4.734;2023-06-01T07:52:01;15.60;99.90
17489;DHT22;8861;52.644;4.734;2023-06-01T07:54:28;15.80;99.90
17489;DHT22;8861;52.644;4.734;2023-06-01T07:56:55;15.90;99.90
17489;DHT22;8861;52.644;4.734;2023-06-01T07:59:22;15.80;99.90
17489;DHT22;8861;52.644;4.734;2023-06-01T08:01:50;15.80;99.90
17489;DHT22;8861;52.644;4.734;2023-06-01T08:04:19;15.90;99.90
17489;DHT22;8861;52.644;4.734;2023-06-01T08:06:47;16.00;99.90
17489;DHT22;8861;52.644;4.734;2023-06-01T08:09:14;16.00;99.90
17489;DHT22;8861;52.644;4.734;2023-06-01T08:11:41;16.00;99.90
17489;DHT22;8861;52.644;4.734;2023-06-01T08:14:08;16.10;99.90
17489;DHT22;8861;52.644;4.734;2023-06-01T08:16:35;16.10;99.90
17489;DHT22;8861;52.644;4.734;2023-06-01T08:19:02;16.10;99.90
17489;DHT22;8861;52.644;4.734;2023-06-01T08:21:30;16.10;99.90
17489;DHT22;8861;52.644;4.734;2023-06-01T08:23:58;16.10;99.90
17489;DHT22;8861;52.644;4.734;2023-06-01T08:26:25;16.10;99.90
17489;DHT22;8861;52.644;4.734;2023-06-01T08:28:52;16.10;99.90
17489;DHT22;8861;52.644;4.734;2023-06-01T08:31:19;16.20;99.90
17489;DHT22;8861;52.644;4.734;2023-06-01T08:33:47;16.30;99.90
17489;DHT22;8861;52.644;4.734;2023-06-01T08:36:15;16.30;99.90
17489;DHT22;8861;52.644;4.734;2023-06-01T08:38:43;16.40;99.90
17489;DHT22;8861;52.644;4.734;2023-06-01T08:41:20;16.40;99.90
17489;DHT22;8861;52.644;4.734;2023-06-01T08:43:52;16.60;99.90
17489;DHT22;8861;52.644;4.734;2023-06-01T08:46:21;16.70;99.90
17489;DHT22;8861;52.644;4.734;2023-06-01T08:48:52;16.80;99.90
17489;DHT22;8861;52.644;4.734;2023-06-01T08:51:21;16.90;99.90
17489;DHT22;8861;52.644;4.734;2023-06-01T08:53:50;17.00;99.90
17489;DHT22;8861;52.644;4.734;2023-06-01T08:56:18;17.10;99.90
17489;DHT22;8861;52.644;4.734;2023-06-01T08:58:47;17.20;99.90
17489;DHT22;8861;52.644;4.734;2023-06-01T09:01:17;17.20;99.90
17489;DHT22;8861;52.644;4.734;2023-06-01T09:03:47;17.30;99.90
17489;DHT22;8861;52.644;4.734;2023-06-01T09:06:14;17.40;99.90
17489;DHT22;8861;52.644;4.734;2023-06-01T09:08:42;17.50;99.90
17489;DHT22;8861;52.644;4.734;2023-06-01T09:11:10;17.60;99.90
17489;DHT22;8861;52.644;4.734;2023-06-01T09:13:38;17.80;99.90
17489;DHT22;8861;52.644;4.734;2023-06-01T09:16:05;17.80;99.90
17489;DHT22;8861;52.644;4.734;2023-06-01T09:18:33;17.90;99.90
17489;DHT22;8861;52.644;4.734;2023-06-01T09:21:10;17.90;99.90
17489;DHT22;8861;52.644;4.734;2023-06-01T09:23:37;17.80;99.90
17489;DHT22;8861;52.644;4.734;2023-06-01T09:26:05;17.90;99.90
17489;DHT22;8861;52.644;4.734;2023-06-01T09:28:58;18.10;99.90
17489;DHT22;8861;52.644;4.734;2023-06-01T09:31:35;18.10;99.90
17489;DHT22;8861;52.644;4.734;2023-06-01T09:34:03;18.10;99.90
17489;DHT22;8861;52.644;4.734;2023-06-01T09:36:30;18.30;99.90
17489;DHT22;8861;52.644;4.734;2023-06-01T09:39:02;18.30;99.90
17489;DHT22;8861;52.644;4.734;2023-06-01T09:41:44;18.30;99.90
17489;DHT22;8861;52.644;4.734;2023-06-01T09:44:13;18.20;99.90
17489;DHT22;8861;52.644;4.734;2023-06-01T09:46:46;18.20;99.90
17489;DHT22;8861;52.644;4.734;2023-06-01T09:49:19;18.30;99.90
17489;DHT22;8861;52.644;4.734;2023-06-01T09:51:47;18.50;99.90
17489;DHT22;8861;52.644;4.734;2023-06-01T09:54:27;18.40;99.90
17489;DHT22;8861;52.644;4.734;2023-06-01T09:56:55;18.30;99.90
17489;DHT22;8861;52.644;4.734;2023-06-01T09:59:24;18.30;99.90
17489;DHT22;8861;52.644;4.734;2023-06-01T10:01:52;18.30;99.90
17489;DHT22;8861;52.644;4.734;2023-06-01T10:04:21;18.20;99.90
17489;DHT22;8861;52.644;4.734;2023-06-01T10:06:50;18.00;99.90
17489;DHT22;8861;52.644;4.734;2023-06-01T10:09:18;17.80;99.90
17489;DHT22;8861;52.644;4.734;2023-06-01T10:11:47;17.70;99.90
17489;DHT22;8861;52.644;4.734;2023-06-01T10:14:15;17.70;99.90
17489;DHT22;8861;52.644;4.734;2023-06-01T10:16:44;17.60;99.90
17489;DHT22;8861;52.644;4.734;2023-06-01T10:19:12;17.40;99.90
17489;DHT22;8861;52.644;4.734;2023-06-01T10:21:39;17.20;99.90
17489;DHT22;8861;52.644;4.734;2023-06-01T10:24:08;17.00;99.90
17489;DHT22;8861;52.644;4.734;2023-06-01T10:26:42;16.90;99.90
17489;DHT22;8861;52.644;4.734;2023-06-01T10:29:11;16.70;99.90
17489;DHT22;8861;52.644;4.734;2023-06-01T10:31:39;16.50;99.90
17489;DHT22;8861;52.644;4.734;2023-06-01T10:34:09;16.30;99.90
17489;DHT22;8861;52.644;4.734;2023-06-01T10:37:10;16.20;99.90
17489;DHT22;8861;52.644;4.734;2023-06-01T10:39:38;16.20;99.90
17489;DHT22;8861;52.644;4.734;2023-06-01T10:42:38;16.10;99.90
17489;DHT22;8861;52.644;4.734;2023-06-01T10:45:07;16.10;99.90
17489;DHT22;8861;52.644;4.734;2023-06-01T10:47:47;16.20;99.90
17489;DHT22;8861;52.644;4.734;2023-06-01T10:50:17;16.30;99.90
17489;DHT22;8861;52.644;4.734;2023-06-01T10:52:45;16.30;99.90
17489;DHT22;8861;52.644;4.734;2023-06-01T10:55:21;16.40;99.90
17489;DHT22;8861;52.644;4.734;2023-06-01T10:57:48;16.30;99.90
17489;DHT22;8861;52.644;4.734;2023-06-01T11:00:18;16.30;99.90
17489;DHT22;8861;52.644;4.734;2023-06-01T11:02:51;16.40;99.90
17489;DHT22;8861;52.644;4.734;2023-06-01T11:05:40;16.40;99.90
17489;DHT22;8861;52.644;4.734;2023-06-01T11:10:54;16.40;99.90
17489;DHT22;8861;52.644;4.734;2023-06-01T11:13:24;16.60;99.90
17489;DHT22;8861;52.644;4.734;2023-06-01T11:16:30;16.60;99.90
17489;DHT22;8861;52.644;4.734;2023-06-01T11:18:58;16.60;99.90
17489;DHT22;8861;52.644;4.734;2023-06-01T11:21:29;16.50;99.90
17489;DHT22;8861;52.644;4.734;2023-06-01T11:23:57;16.50;99.90
17489;DHT22;8861;52.644;4.734;2023-06-01T11:26:29;16.40;99.90
17489;DHT22;8861;52.644;4.734;2023-06-01T11:29:08;16.40;99.90
17489;DHT22;8861;52.644;4.734;2023-06-01T11:31:38;16.50;99.90
17489;DHT22;8861;52.644;4.734;2023-06-01T11:34:08;16.70;99.90
17489;DHT22;8861;52.644;4.734;2023-06-01T11:36:42;16.80;99.90
17489;DHT22;8861;52.644;4.734;2023-06-01T11:39:17;16.70;99.90
17489;DHT22;8861;52.644;4.734;2023-06-01T11:41:46;16.60;99.90
17489;DHT22;8861;52.644;4.734;2023-06-01T11:44:14;16.50;99.90
17489;DHT22;8861;52.644;4.734;2023-06-01T11:46:54;16.50;99.90
17489;DHT22;8861;52.644;4.734;2023-06-01T11:49:22;16.40;99.90
17489;DHT22;8861;52.644;4.734;2023-06-01T11:51:51;16.30;99.90
17489;DHT22;8861;52.644;4.734;2023-06-01T11:54:23;16.20;99.90
17489;DHT22;8861;52.644;4.734;2023-06-01T11:56:50;16.10;99.90
17489;DHT22;8861;52.644;4.734;2023-06-01T11:59:19;16.00;99.90
17489;DHT22;8861;52.644;4.734;2023-06-01T12:01:47;16.20;99.90
17489;DHT22;8861;52.644;4.734;2023-06-01T12:04:14;16.30;99.90
17489;DHT22;8861;52.644;4.734;2023-06-01T12:06:41;16.50;99.90
17489;DHT22;8861;52.644;4.734;2023-06-01T12:09:10;16.50;99.90
17489;DHT22;8861;52.644;4.734;2023-06-01T12:11:38;16.40;99.90
17489;DHT22;8861;52.644;4.734;2023-06-01T12:14:06;16.40;99.90
17489;DHT22;8861;52.644;4.734;2023-06-01T12:16:55;16.40;99.90
17489;DHT22;8861;52.644;4.734;2023-06-01T12:19:24;16.50;99.90
17489;DHT22;8861;52.644;4.734;2023-06-01T12:21:53;16.70;99.90
17489;DHT22;8861;52.644;4.734;2023-06-01T12:24:28;16.70;99.90
17489;DHT22;8861;52.644;4.734;2023-06-01T12:26:56;16.70;99.90
17489;DHT22;8861;52.644;4.734;2023-06-01T12:29:39;16.50;99.90
17489;DHT22;8861;52.644;4.734;2023-06-01T12:32:07;16.50;99.90
17489;DHT22;8861;52.644;4.734;2023-06-01T12:34:35;16.40;99.90
17489;DHT22;8861;52.644;4.734;2023-06-01T12:37:13;16.40;99.90
17489;DHT22;8861;52.644;4.734;2023-06-01T12:39:42;16.50;99.90
17489;DHT22;8861;52.644;4.734;2023-06-01T12:42:09;16.60;99.90
17489;DHT22;8861;52.644;4.734;2023-06-01T12:44:37;16.60;99.90
17489;DHT22;8861;52.644;4.734;2023-06-01T12:47:07;16.70;99.90
17489;DHT22;8861;52.644;4.734;2023-06-01T12:49:34;16.70;99.90
17489;DHT22;8861;52.644;4.734;2023-06-01T12:52:04;16.80;99.90
17489;DHT22;8861;52.644;4.734;2023-06-01T12:54:31;16.90;99.90
17489;DHT22;8861;52.644;4.734;2023-06-01T12:56:59;17.10;99.90
17489;DHT22;8861;52.644;4.734;2023-06-01T12:59:27;17.30;99.90
17489;DHT22;8861;52.644;4.734;2023-06-01T13:01:54;17.50;99.90
17489;DHT22;8861;52.644;4.734;2023-06-01T13:04:21;17.50;99.90
17489;DHT22;8861;52.644;4.734;2023-06-01T13:06:49;17.70;99.90
17489;DHT22;8861;52.644;4.734;2023-06-01T13:09:16;17.70;99.90
17489;DHT22;8861;52.644;4.734;2023-06-01T13:11:43;17.60;99.90
17489;DHT22;8861;52.644;4.734;2023-06-01T13:14:12;17.60;99.90
17489;DHT22;8861;52.644;4.734;2023-06-01T13:16:40;17.70;99.90
17489;DHT22;8861;52.644;4.734;2023-06-01T13:19:07;17.70;99.90
17489;DHT22;8861;52.644;4.734;2023-06-01T13:21:34;17.70;99.90
17489;DHT22;8861;52.644;4.734;2023-06-01T13:24:01;17.70;99.90
17489;DHT22;8861;52.644;4.734;2023-06-01T13:26:29;17.70;99.90
17489;DHT22;8861;52.644;4.734;2023-06-01T13:28:56;17.60;99.90
17489;DHT22;8861;52.644;4.734;2023-06-01T13:31:24;17.60;99.90
17489;DHT22;8861;52.644;4.734;2023-06-01T13:33:51;17.60;99.90
17489;DHT22;8861;52.644;4.734;2023-06-01T13:36:19;17.50;99.90
17489;DHT22;8861;52.644;4.734;2023-06-01T13:38:46;17.40;99.90
17489;DHT22;8861;52.644;4.734;2023-06-01T13:41:12;17.30;99.90
17489;DHT22;8861;52.644;4.734;2023-06-01T13:43:40;17.10;99.90
17489;DHT22;8861;52.644;4.734;2023-06-01T13:46:07;17.00;99.90
17489;DHT22;8861;52.644;4.734;2023-06-01T13:48:36;16.90;99.90
17489;DHT22;8861;52.644;4.734;2023-06-01T13:51:04;16.80;99.90
17489;DHT22;8861;52.644;4.734;2023-06-01T13:53:32;16.80;99.90
17489;DHT22;8861;52.644;4.734;2023-06-01T13:55:59;16.60;99.90
17489;DHT22;8861;52.644;4.734;2023-06-01T13:58:26;16.60;99.90
17489;DHT22;8861;52.644;4.734;2023-06-01T14:00:53;16.60;99.90
17489;DHT22;8861;52.644;4.734;2023-06-01T14:03:20;16.60;99.90
17489;DHT22;8861;52.644;4.734;2023-06-01T14:05:48;16.60;99.90
17489;DHT22;8861;52.644;4.734;2023-06-01T14:08:16;16.60;99.90
17489;DHT22;8861;52.644;4.734;2023-06-01T14:10:43;16.60;99.90
17489;DHT22;8861;52.644;4.734;2023-06-01T14:13:10;16.70;99.90
17489;DHT22;8861;52.644;4.734;2023-06-01T14:15:37;16.60;99.90
17489;DHT22;8861;52.644;4.734;2023-06-01T14:18:04;16.60;99.90
17489;DHT22;8861;52.644;4.734;2023-06-01T14:20:32;16.50;99.90
17489;DHT22;8861;52.644;4.734;2023-06-01T14:23:02;16.40;99.90
17489;DHT22;8861;52.644;4.734;2023-06-01T14:25:29;16.30;99.90
17489;DHT22;8861;52.644;4.734;2023-06-01T14:27:56;16.20;99.90
17489;DHT22;8861;52.644;4.734;2023-06-01T14:30:23;16.20;99.90
17489;DHT22;8861;52.644;4.734;2023-06-01T14:32:52;16.10;99.90
17489;DHT22;8861;52.644;4.734;2023-06-01T14:35:19;16.10;99.90
17489;DHT22;8861;52.644;4.734;2023-06-01T14:37:46;16.20;99.90
17489;DHT22;8861;52.644;4.734;2023-06-01T14:40:15;16.30;99.90
17489;DHT22;8861;52.644;4.734;2023-06-01T14:42:42;16.40;99.90
17489;DHT22;8861;52.644;4.734;2023-06-01T14:45:09;16.50;99.90
17489;DHT22;8861;52.644;4.734;2023-06-01T14:47:37;16.70;99.90
17489;DHT22;8861;52.644;4.734;2023-06-01T14:50:07;16.90;99.90
17489;DHT22;8861;52.644;4.734;2023-06-01T14:52:34;16.90;99.90
17489;DHT22;8861;52.644;4.734;2023-06-01T14:55:01;16.80;99.90
17489;DHT22;8861;52.644;4.734;2023-06-01T14:57:29;16.80;99.90
17489;DHT22;8861;52.644;4.734;2023-06-01T14:59:57;16.80;99.90
17489;DHT22;8861;52.644;4.734;2023-06-01T15:02:24;16.90;99.90
17489;DHT22;8861;52.644;4.734;2023-06-01T15:04:51;16.70;99.90
17489;DHT22;8861;52.644;4.734;2023-06-01T15:07:18;16.70;99.90
17489;DHT22;8861;52.644;4.734;2023-06-01T15:09:45;16.60;99.90
17489;DHT22;8861;52.644;4.734;2023-06-01T15:12:12;16.40;99.90
17489;DHT22;8861;52.644;4.734;2023-06-01T15:14:40;16.40;99.90
17489;DHT22;8861;52.644;4.734;2023-06-01T15:17:08;16.40;99.90
17489;DHT22;8861;52.644;4.734;2023-06-01T15:19:35;16.30;99.90
17489;DHT22;8861;52.644;4.734;2023-06-01T15:22:02;16.30;99.90
17489;DHT22;8861;52.644;4.734;2023-06-01T15:24:30;16.20;99.90
17489;DHT22;8861;52.644;4.734;2023-06-01T15:26:56;16.10;99.90
17489;DHT22;8861;52.644;4.734;2023-06-01T15:29:23;16.10;99.90
17489;DHT22;8861;52.644;4.734;2023-06-01T15:31:54;16.00;99.90
17489;DHT22;8861;52.644;4.734;2023-06-01T15:34:21;16.00;99.90
17489;DHT22;8861;52.644;4.734;2023-06-01T15:36:48;16.00;99.90
17489;DHT22;8861;52.644;4.734;2023-06-01T15:39:15;15.90;99.90
17489;DHT22;8861;52.644;4.734;2023-06-01T15:41:43;15.90;99.90
17489;DHT22;8861;52.644;4.734;2023-06-01T15:44:10;16.00;99.90
17489;DHT22;8861;52.644;4.734;2023-06-01T15:46:37;15.90;99.90
17489;DHT22;8861;52.644;4.734;2023-06-01T15:49:05;15.90;99.90
17489;DHT22;8861;52.644;4.734;2023-06-01T15:51:32;15.90;99.90
17489;DHT22;8861;52.644;4.734;2023-06-01T15:53:59;15.80;99.90
17489;DHT22;8861;52.644;4.734;2023-06-01T15:56:26;15.70;99.90
17489;DHT22;8861;52.644;4.734;2023-06-01T15:58:53;15.70;99.90